Home > Products > Valid Products > MTR

000
SAHW31 PHFO 160754
MTRITO
METAR PHTO 160753Z 25005KT 10SM -RA FEW032 SCT050 BKN065 19/19 A3011
RMK AO2 RAB21 SLP196 P0000 T01940189





000
SAHW31 PHFO 160754
MTRITO
METAR PHTO 160753Z 25005KT 10SM -RA FEW032 SCT050 BKN065 19/19 A3011
RMK AO2 RAB21 SLP196 P0000 T01940189




000
SAHW31 PHFO 160654
MTRITO
METAR PHTO 160653Z 27007KT 10SM FEW060 20/19 A3010 RMK AO2
RAB0559E08 SLP190 P0000 T02000194




000
SAHW31 PHFO 160654
MTRITO
METAR PHTO 160653Z 27007KT 10SM FEW060 20/19 A3010 RMK AO2
RAB0559E08 SLP190 P0000 T02000194





000
SAHW31 PHFO 160554
MTRITO
METAR PHTO 160553Z 30007KT 6SM BR SCT018 BKN048 OVC065 21/20 A3009
RMK AO2 RAB00E51 SLP187 P0027 60033 T02060200 10256 20200 51014





000
SAHW31 PHFO 160554
MTRITO
METAR PHTO 160553Z 30007KT 6SM BR SCT018 BKN048 OVC065 21/20 A3009
RMK AO2 RAB00E51 SLP187 P0027 60033 T02060200 10256 20200 51014




000
SAHW31 PHFO 160552
MTRITO
SPECI PHTO 160551Z 30006KT 2SM BR FEW015 BKN048 OVC065 20/20 A3009
RMK AO2 RAB00E51 P0027





000
SAHW31 PHFO 160552
MTRITO
SPECI PHTO 160551Z 30006KT 2SM BR FEW015 BKN048 OVC065 20/20 A3009
RMK AO2 RAB00E51 P0027




000
SAHW31 PHFO 160533
MTRITO
SPECI PHTO 160532Z 01010KT 2SM +RA BR FEW019 BKN029 OVC050 21/19
A3009 RMK AO2 RAB00 P0013 T02060194




000
SAHW31 PHFO 160533
MTRITO
SPECI PHTO 160532Z 01010KT 2SM +RA BR FEW019 BKN029 OVC050 21/19
A3009 RMK AO2 RAB00 P0013 T02060194





000
SAHW31 PHFO 160454
MTRITO
METAR PHTO 160453Z 28005KT 10SM FEW037 SCT047 OVC055 22/21 A3007 RMK
AO2 RAB12E30 SLP180 P0000 T02170206





000
SAHW31 PHFO 160454
MTRITO
METAR PHTO 160453Z 28005KT 10SM FEW037 SCT047 OVC055 22/21 A3007 RMK
AO2 RAB12E30 SLP180 P0000 T02170206




000
SAHW31 PHFO 160354
MTRITO
METAR PHTO 160353Z 34005KT 10SM FEW022 SCT036 BKN047 22/19 A3005 RMK
AO2 RAB19E40 SLP173 P0002 T02170194





000
SAHW31 PHFO 160354
MTRITO
METAR PHTO 160353Z 34005KT 10SM FEW022 SCT036 BKN047 22/19 A3005 RMK
AO2 RAB19E40 SLP173 P0002 T02170194




000
SAHW31 PHFO 160254
MTRITO
METAR PHTO 160253Z 34008KT 10SM FEW036 SCT044 BKN060 25/19 A3002 RMK
AO2 SLP165 60004 T02500194 55005





000
SAHW31 PHFO 160254
MTRITO
METAR PHTO 160253Z 34008KT 10SM FEW036 SCT044 BKN060 25/19 A3002 RMK
AO2 SLP165 60004 T02500194 55005




000
SAHW31 PHFO 160154
MTRITO
METAR PHTO 160153Z 35010KT 10SM FEW031 FEW044 24/20 A3001 RMK AO2
RAE0057B14E24 SLP162 P0000 T02390200




000
SAHW31 PHFO 160154
MTRITO
METAR PHTO 160153Z 35010KT 10SM FEW031 FEW044 24/20 A3001 RMK AO2
RAE0057B14E24 SLP162 P0000 T02390200





000
SAHW31 PHFO 160054
MTRITO
METAR PHTO 160053Z 01010KT 7SM -RA FEW022 SCT031 BKN040 24/21 A3002
RMK AO2 RAE28B48 SLP162 P0004 T02390211




000
SAHW31 PHFO 160054
MTRITO
METAR PHTO 160053Z 01010KT 7SM -RA FEW022 SCT031 BKN040 24/21 A3002
RMK AO2 RAE28B48 SLP162 P0004 T02390211





000
SAHW31 PHFO 160035
MTRITO
SPECI PHTO 160034Z 35006KT 10SM SCT027 BKN033 BKN042 24/21 A3002 RMK
AO2 RAE28 P0004 T02390211





000
SAHW31 PHFO 160035
MTRITO
SPECI PHTO 160034Z 35006KT 10SM SCT027 BKN033 BKN042 24/21 A3002 RMK
AO2 RAE28 P0004 T02390211




000
SAHW31 PHFO 152354
MTRITO
METAR PHTO 152353Z 06008KT 3SM RA BR BKN024 BKN036 OVC070 22/20
A3004 RMK AO2 RAB43 SLP170 P0000 60001 T02220200 10261 20211 56017





000
SAHW31 PHFO 152354
MTRITO
METAR PHTO 152353Z 06008KT 3SM RA BR BKN024 BKN036 OVC070 22/20
A3004 RMK AO2 RAB43 SLP170 P0000 60001 T02220200 10261 20211 56017




000
SAHW31 PHFO 152351
MTRITO
SPECI PHTO 152350Z 06015KT 3SM -RA BR BKN024 BKN036 OVC070 23/20
A3004 RMK AO2 RAB43 P0000





000
SAHW31 PHFO 152254
MTRITO
METAR PHTO 152253Z 36011KT 10SM SCT026 BKN037 BKN049 24/19 A3005 RMK
AO2 RAB09E25 SLP173 P0000 T02440194





000
SAHW31 PHFO 152154
MTRITO
METAR PHTO 152153Z 01011KT 10SM FEW065 26/19 A3007 RMK AO2 RAB09E19
SLP180 P0000 T02560189




000
SAHW31 PHFO 152154
MTRITO
METAR PHTO 152153Z 01011KT 10SM FEW065 26/19 A3007 RMK AO2 RAB09E19
SLP180 P0000 T02560189





000
SAHW31 PHFO 152054
MTRITO
METAR PHTO 152053Z 36010KT 10SM FEW027 SCT038 25/19 A3009 RMK AO2
RAB14E30 SLP187 P0000 60001 T02500194 58004





000
SAHW31 PHFO 152054
MTRITO
METAR PHTO 152053Z 36010KT 10SM FEW027 SCT038 25/19 A3009 RMK AO2
RAB14E30 SLP187 P0000 60001 T02500194 58004




000
SAHW31 PHFO 151954
MTRITO
METAR PHTO 151953Z 01010KT 10SM FEW040 FEW055 SCT075 24/20 A3010 RMK
AO2 RAB01E46 SLP190 P0001 T02440200 $





000
SAHW31 PHFO 151954
MTRITO
METAR PHTO 151953Z 01010KT 10SM FEW040 FEW055 SCT075 24/20 A3010 RMK
AO2 RAB01E46 SLP190 P0001 T02440200 $




000
SAHW31 PHFO 151854
MTRITO
METAR PHTO 151853Z 36008KT 10SM FEW026 SCT040 SCT055 23/19 A3010 RMK
AO2 SLP192 T02280189





000
SAHW31 PHFO 151854
MTRITO
METAR PHTO 151853Z 36008KT 10SM FEW026 SCT040 SCT055 23/19 A3010 RMK
AO2 SLP192 T02280189




000
SAHW31 PHFO 151754
MTRITO
METAR PHTO 151753Z 32008KT 10SM SCT027 SCT038 BKN048 21/19 A3010 RMK
AO2 RAB02E46 SLP192 P0002 60005 T02110189 10222 20194 53016 $




000
SAHW31 PHFO 151654
MTRITO
METAR PHTO 151653Z 30009KT 10SM SCT028 BKN043 BKN075 21/17 A3009 RMK
AO2 RAB02E26 SLP186 P0003 T02060172 $




000
SAHW31 PHFO 151654
MTRITO
METAR PHTO 151653Z 30009KT 10SM SCT028 BKN043 BKN075 21/17 A3009 RMK
AO2 RAB02E26 SLP186 P0003 T02060172 $





000
SAHW31 PHFO 151554
MTRITO
METAR PHTO 151553Z 33014KT 10SM FEW021 BKN060 OVC070 22/18 A3007 RMK
AO2 RAB42E51 SLP181 P0000 T02170183 $




000
SAHW31 PHFO 151554
MTRITO
METAR PHTO 151553Z 33014KT 10SM FEW021 BKN060 OVC070 22/18 A3007 RMK
AO2 RAB42E51 SLP181 P0000 T02170183 $





000
SAHW31 PHFO 151541
MTRITO
SPECI PHTO 151540Z 33008KT 10SM SCT030 BKN034 BKN065 21/18 A3007 RMK
AO2 T02110178 $




000
SAHW31 PHFO 151518
MTRITO
SPECI PHTO 151517Z 32011KT 10SM BKN028 21/18 A3006 RMK AO2 T02110178
$





000
SAHW31 PHFO 151518
MTRITO
SPECI PHTO 151517Z 32011KT 10SM BKN028 21/18 A3006 RMK AO2 T02110178
$




000
SAHW31 PHFO 151454
MTRITO
METAR PHTO 151453Z 03009KT 10SM SCT032 22/17 A3006 RMK AO2 SLP176
60000 T02220167 55007 $





000
SAHW31 PHFO 151454
MTRITO
METAR PHTO 151453Z 03009KT 10SM SCT032 22/17 A3006 RMK AO2 SLP176
60000 T02220167 55007 $




000
SAHW31 PHFO 151354
MTRITO
METAR PHTO 151353Z 02011KT 10SM FEW028 BKN055 22/17 A3005 RMK AO2
SLP175 T02220167 $




000
SAHW31 PHFO 151254
MTRITO
METAR PHTO 151253Z 01008KT 10SM SCT030 BKN090 22/18 A3006 RMK AO2
RAE03 SLP177 P0000 T02220178 $




000
SAHW31 PHFO 151254
MTRITO
METAR PHTO 151253Z 01008KT 10SM SCT030 BKN090 22/18 A3006 RMK AO2
RAE03 SLP177 P0000 T02220178 $





000
SAHW31 PHFO 151203
MTRITO
SPECI PHTO 151202Z 35009KT 10SM -RA SCT025 BKN033 BKN050 21/18 A3007
RMK AO2 P0000 T02110183 $





000
SAHW31 PHFO 151203
MTRITO
SPECI PHTO 151202Z 35009KT 10SM -RA SCT025 BKN033 BKN050 21/18 A3007
RMK AO2 P0000 T02110183 $




000
SAHW31 PHFO 151154
MTRITO
METAR PHTO 151153Z 04013G17KT 8SM -RA BKN025 BKN033 OVC065 22/19
A3008 RMK AO2 RAE01B51 SLP183 P0000 60000 T02170189 10228 20211
58019 $




000
SAHW31 PHFO 151154
MTRITO
METAR PHTO 151153Z 04013G17KT 8SM -RA BKN025 BKN033 OVC065 22/19
A3008 RMK AO2 RAE01B51 SLP183 P0000 60000 T02170189 10228 20211
58019 $





000
SAHW31 PHFO 151055
MTRITO
METAR PHTO 151053Z 02011G23KT 9SM -RA FEW029 BKN047 OVC070 22/18
A3010 RMK AO2 RAE02B49 SLP191 P0000 T02170178 $




000
SAHW31 PHFO 151055
MTRITO
METAR PHTO 151053Z 02011G23KT 9SM -RA FEW029 BKN047 OVC070 22/18
A3010 RMK AO2 RAE02B49 SLP191 P0000 T02170178 $





000
SAHW31 PHFO 150954
MTRITO
METAR PHTO 150953Z AUTO 01011G21KT 9SM -RA SCT030 BKN036 OVC049
22/18 A3012 RMK AO2 RAB51 SLP196 P0000 T02220178 402670211 TSNO $




000
SAHW31 PHFO 150854
MTRITO
METAR PHTO 150853Z AUTO 01011G19KT 10SM SCT030 BKN036 23/17 A3013
RMK AO2 SLP202 60000 T02280172 50004 TSNO $




000
SAHW31 PHFO 150854
MTRITO
METAR PHTO 150853Z AUTO 01011G19KT 10SM SCT030 BKN036 23/17 A3013
RMK AO2 SLP202 60000 T02280172 50004 TSNO $





000
SAHW31 PHFO 150754
MTRITO
METAR PHTO 150753Z 01011KT 10SM SCT032 23/17 A3014 RMK AO2 RAE05
SLP203 P0000 T02280172 $





000
SAHW31 PHFO 150654
MTRITO
METAR PHTO 150653Z 01016G22KT 10SM -RA FEW030 BKN060 22/18 A3013 RMK
AO2 RAB0555E11B50 SLP201 P0000 T02170183 $




000
SAHW31 PHFO 150654
MTRITO
METAR PHTO 150653Z 01016G22KT 10SM -RA FEW030 BKN060 22/18 A3013 RMK
AO2 RAB0555E11B50 SLP201 P0000 T02170183 $





000
SAHW31 PHFO 150554
MTRITO
METAR PHTO 150553Z 34016G21KT 10SM FEW033 SCT040 BKN065 22/18 A3012
RMK AO2 SLP197 T02220178 10267 20222 53013 $





000
SAHW31 PHFO 150454
MTRITO
METAR PHTO 150453Z 36014G20KT 10SM FEW033 SCT042 BKN060 23/17 A3011
RMK AO2 SLP193 T02330172 $





000
SAHW31 PHFO 150454
MTRITO
METAR PHTO 150453Z 36014G20KT 10SM FEW033 SCT042 BKN060 23/17 A3011
RMK AO2 SLP193 T02330172 $




000
SAHW31 PHFO 150354
MTRITO
METAR PHTO 150353Z 01010KT 10SM FEW036 SCT044 BKN070 24/17 A3009 RMK
AO2 SLP188 T02440167 $





000
SAHW31 PHFO 150354
MTRITO
METAR PHTO 150353Z 01010KT 10SM FEW036 SCT044 BKN070 24/17 A3009 RMK
AO2 SLP188 T02440167 $




000
SAHW31 PHFO 150254
MTRITO
METAR PHTO 150253Z 02010KT 10SM FEW034 26/17 A3008 RMK AO2 SLP185
T02560172 56011 $





000
SAHW31 PHFO 150254
MTRITO
METAR PHTO 150253Z 02010KT 10SM FEW034 26/17 A3008 RMK AO2 SLP185
T02560172 56011 $




000
SAHW31 PHFO 150154
MTRITO
METAR PHTO 150153Z 01012KT 10SM SCT034 SCT045 BKN050 26/18 A3008 RMK
AO2 SLP185 T02610178 $





000
SAHW31 PHFO 150154
MTRITO
METAR PHTO 150153Z 01012KT 10SM SCT034 SCT045 BKN050 26/18 A3008 RMK
AO2 SLP185 T02610178 $




000
SAHW31 PHFO 150054
MTRITO
METAR PHTO 150053Z 01011KT 10SM SCT033 26/18 A3009 RMK AO2 SLP189
T02610178 $




000
SAHW31 PHFO 150054
MTRITO
METAR PHTO 150053Z 01011KT 10SM SCT033 26/18 A3009 RMK AO2 SLP189
T02610178 $





000
SAHW31 PHFO 142354
MTRITO
METAR PHTO 142353Z 01012KT 10SM SCT035 26/18 A3011 RMK AO2 SLP196
T02610178 10267 20239 58016 $




000
SAHW31 PHFO 142354
MTRITO
METAR PHTO 142353Z 01012KT 10SM SCT035 26/18 A3011 RMK AO2 SLP196
T02610178 10267 20239 58016 $





000
SAHW31 PHFO 142254
MTRITO
METAR PHTO 142253Z 01012KT 10SM FEW035 26/18 A3013 RMK AO2 SLP202
T02610178 $





000
SAHW31 PHFO 142254
MTRITO
METAR PHTO 142253Z 01012KT 10SM FEW035 26/18 A3013 RMK AO2 SLP202
T02610178 $




000
SAHW31 PHFO 142154
MTRITO
METAR PHTO 142153Z 01012G19KT 10SM FEW035 26/17 A3015 RMK AO2 SLP208
T02610172 $





000
SAHW31 PHFO 142154
MTRITO
METAR PHTO 142153Z 01012G19KT 10SM FEW035 26/17 A3015 RMK AO2 SLP208
T02610172 $




000
SAHW31 PHFO 142054
MTRITO
METAR PHTO 142053Z 02012G18KT 10SM FEW035 FEW040 26/18 A3016 RMK AO2
SLP212 T02610183 50003 $





000
SAHW31 PHFO 142054
MTRITO
METAR PHTO 142053Z 02012G18KT 10SM FEW035 FEW040 26/18 A3016 RMK AO2
SLP212 T02610183 50003 $




000
SAHW31 PHFO 141954
MTRITO
METAR PHTO 141953Z 02013KT 10SM SCT030 SCT041 26/18 A3017 RMK AO2
SLP214 T02610178 $




000
SAHW31 PHFO 141954
MTRITO
METAR PHTO 141953Z 02013KT 10SM SCT030 SCT041 26/18 A3017 RMK AO2
SLP214 T02610178 $





000
SAHW31 PHFO 141854
MTRITO
METAR PHTO 141853Z 01010KT 10SM FEW032 BKN070 24/17 A3016 RMK AO2
SLP212 T02440172 $





000
SAHW31 PHFO 141854
MTRITO
METAR PHTO 141853Z 01010KT 10SM FEW032 BKN070 24/17 A3016 RMK AO2
SLP212 T02440172 $




000
SAHW31 PHFO 141754
MTRITO
METAR PHTO 141753Z 01010KT 10SM SCT030 SCT070 24/17 A3015 RMK AO2
SLP209 T02390172 10239 20217 51014 $




000
SAHW31 PHFO 141754
MTRITO
METAR PHTO 141753Z 01010KT 10SM SCT030 SCT070 24/17 A3015 RMK AO2
SLP209 T02390172 10239 20217 51014 $





000
SAHW31 PHFO 141654
MTRITO
METAR PHTO 141653Z 36008KT 10SM SCT037 SCT070 23/17 A3015 RMK AO2
SLP206 T02280172 $




000
SAHW31 PHFO 141654
MTRITO
METAR PHTO 141653Z 36008KT 10SM SCT037 SCT070 23/17 A3015 RMK AO2
SLP206 T02280172 $





000
SAHW31 PHFO 141554
MTRITO
METAR PHTO 141553Z 02008KT 10SM FEW034 SCT065 23/17 A3012 RMK AO2
SLP199 T02280167 $





000
SAHW31 PHFO 141554
MTRITO
METAR PHTO 141553Z 02008KT 10SM FEW034 SCT065 23/17 A3012 RMK AO2
SLP199 T02280167 $




000
SAHW31 PHFO 141454
MTRITO
METAR PHTO 141453Z 03009KT 10SM FEW030 BKN070 22/17 A3011 RMK AO2
SLP195 T02220172 56011 $




000
SAHW31 PHFO 141454
MTRITO
METAR PHTO 141453Z 03009KT 10SM FEW030 BKN070 22/17 A3011 RMK AO2
SLP195 T02220172 56011 $





000
SAHW31 PHFO 141354
MTRITO
METAR PHTO 141353Z 34007KT 10SM BKN030 BKN039 BKN075 22/17 A3011 RMK
AO2 SLP196 T02170172 $





000
SAHW31 PHFO 141354
MTRITO
METAR PHTO 141353Z 34007KT 10SM BKN030 BKN039 BKN075 22/17 A3011 RMK
AO2 SLP196 T02170172 $




000
SAHW31 PHFO 141254
MTRITO
METAR PHTO 141253Z 01010KT 10SM SCT075 23/17 A3012 RMK AO2 SLP199
T02280172 $





000
SAHW31 PHFO 141254
MTRITO
METAR PHTO 141253Z 01010KT 10SM SCT075 23/17 A3012 RMK AO2 SLP199
T02280172 $




000
SAHW31 PHFO 141154
MTRITO
METAR PHTO 141153Z 36008KT 10SM SCT033 BKN070 23/17 A3014 RMK AO2
SLP206 60000 70099 T02280167 10233 20222 58010 $





000
SAHW31 PHFO 141154
MTRITO
METAR PHTO 141153Z 36008KT 10SM SCT033 BKN070 23/17 A3014 RMK AO2
SLP206 60000 70099 T02280167 10233 20222 58010 $




000
SAHW31 PHFO 141054
MTRITO
METAR PHTO 141053Z 36007KT 10SM FEW030 SCT070 22/17 A3016 RMK AO2
SLP210 T02220172 $





000
SAHW31 PHFO 140954
MTRITO
METAR PHTO 140953Z AUTO 02011KT 10SM FEW032 BKN075 23/17 A3017 RMK
AO2 SLP215 T02280172 402610194 TSNO $




000
SAHW31 PHFO 140954
MTRITO
METAR PHTO 140953Z AUTO 02011KT 10SM FEW032 BKN075 23/17 A3017 RMK
AO2 SLP215 T02280172 402610194 TSNO $





000
SAHW31 PHFO 140854
MTRITO
METAR PHTO 140853Z AUTO 04007KT 10SM CLR 23/17 A3018 RMK AO2 SLP217
60000 T02280172 51014 TSNO $





000
SAHW31 PHFO 140854
MTRITO
METAR PHTO 140853Z AUTO 04007KT 10SM CLR 23/17 A3018 RMK AO2 SLP217
60000 T02280172 51014 TSNO $




000
SAHW31 PHFO 140754
MTRITO
METAR PHTO 140753Z 02009KT 10SM SCT070 23/18 A3017 RMK AO2 RAE03
SLP216 P0000 T02280178 $




000
SAHW31 PHFO 140754
MTRITO
METAR PHTO 140753Z 02009KT 10SM SCT070 23/18 A3017 RMK AO2 RAE03
SLP216 P0000 T02280178 $





000
SAHW31 PHFO 140654
MTRITO
METAR PHTO 140653Z 03012G20KT 10SM -RA SCT030 BKN035 OVC080 23/18
A3016 RMK AO2 RAB52 SLP210 P0000 T02280183 $




000
SAHW31 PHFO 140554
MTRITO
METAR PHTO 140553Z 03010KT 10SM FEW030 FEW060 23/18 A3013 RMK AO2
SLP203 60011 T02280183 10244 20217 51014 $





000
SAHW31 PHFO 140554
MTRITO
METAR PHTO 140553Z 03010KT 10SM FEW030 FEW060 23/18 A3013 RMK AO2
SLP203 60011 T02280183 10244 20217 51014 $




000
SAHW31 PHFO 140454
MTRITO
METAR PHTO 140453Z 04009KT 10SM FEW030 23/18 A3012 RMK AO2 SLP199
T02280178 $





000
SAHW31 PHFO 140454
MTRITO
METAR PHTO 140453Z 04009KT 10SM FEW030 23/18 A3012 RMK AO2 SLP199
T02280178 $




000
SAHW31 PHFO 140354
MTRITO
METAR PHTO 140353Z 03009KT 10SM FEW034 SCT080 23/18 A3011 RMK AO2
SLP194 T02330178 $




000
SAHW31 PHFO 140354
MTRITO
METAR PHTO 140353Z 03009KT 10SM FEW034 SCT080 23/18 A3011 RMK AO2
SLP194 T02330178 $





000
SAHW31 PHFO 140254
MTRITO
METAR PHTO 140253Z 03012KT 10SM FEW030 OVC070 24/18 A3009 RMK AO2
SLP189 60011 T02390178 56005 $





000
SAHW31 PHFO 140254
MTRITO
METAR PHTO 140253Z 03012KT 10SM FEW030 OVC070 24/18 A3009 RMK AO2
SLP189 60011 T02390178 56005 $




000
SAHW31 PHFO 140154
MTRITO
METAR PHTO 140153Z 04013KT 10SM BKN037 BKN070 24/18 A3010 RMK AO2
SLP189 T02440178 $





000
SAHW31 PHFO 140154
MTRITO
METAR PHTO 140153Z 04013KT 10SM BKN037 BKN070 24/18 A3010 RMK AO2
SLP189 T02440178 $




000
SAHW31 PHFO 140054
MTRITO
METAR PHTO 140053Z 05012KT 10SM SCT031 SCT041 OVC070 24/19 A3009 RMK
AO2 RAE07 SLP188 P0011 T02440189 $




000
SAHW31 PHFO 140054
MTRITO
METAR PHTO 140053Z 05012KT 10SM SCT031 SCT041 OVC070 24/19 A3009 RMK
AO2 RAE07 SLP188 P0011 T02440189 $





000
SAHW31 PHFO 140004
MTRITO
SPECI PHTO 140003Z 35006KT 6SM -RA BR SCT029 BKN035 OVC049 23/21
A3010 RMK AO2 P0011 T02280206 $





000
SAHW31 PHFO 140004
MTRITO
SPECI PHTO 140003Z 35006KT 6SM -RA BR SCT029 BKN035 OVC049 23/21
A3010 RMK AO2 P0011 T02280206 $




000
SAHW31 PHFO 132354
MTRITO
METAR PHTO 132353Z 07010G15KT 2 1/2SM +RA BR SCT020 BKN028 OVC047
22/19 A3011 RMK AO2 RAB50 SLP194 60000 T02170194 10261 20211 58019
PNO




000
SAHW31 PHFO 132354
MTRITO
METAR PHTO 132353Z 07010G15KT 2 1/2SM +RA BR SCT020 BKN028 OVC047
22/19 A3011 RMK AO2 RAB50 SLP194 60000 T02170194 10261 20211 58019
PNO





000
SAHW31 PHFO 132351
MTRITO
SPECI PHTO 132350Z 06008G15KT 2SM -RA BR FEW018 BKN040 OVC047 23/19
A3011 RMK AO2 RAB50 P0000




000
SAHW31 PHFO 132351
MTRITO
SPECI PHTO 132350Z 06008G15KT 2SM -RA BR FEW018 BKN040 OVC047 23/19
A3011 RMK AO2 RAB50 P0000





000
SAHW31 PHFO 132254
MTRITO
METAR PHTO 132253Z 03017G21KT 10SM FEW028 SCT047 26/19 A3013 RMK AO2
RAB30E42 SLP202 P0000 T02560194





000
SAHW31 PHFO 132154
MTRITO
METAR PHTO 132153Z 35008KT 10SM SCT029 SCT035 26/20 A3015 RMK AO2
SLP210 T02560200




000
SAHW31 PHFO 132154
MTRITO
METAR PHTO 132153Z 35008KT 10SM SCT029 SCT035 26/20 A3015 RMK AO2
SLP210 T02560200





000
SAHW31 PHFO 132054
MTRITO
METAR PHTO 132053Z 35012KT 10SM BKN031 BKN044 26/19 A3017 RMK AO2
SLP214 60000 T02560194 50003





000
SAHW31 PHFO 132054
MTRITO
METAR PHTO 132053Z 35012KT 10SM BKN031 BKN044 26/19 A3017 RMK AO2
SLP214 60000 T02560194 50003




000
SAHW31 PHFO 132006
MTRITO
SPECI PHTO 132005Z 01008KT 10SM SCT024 BKN031 BKN060 24/21 A3017 RMK
AO2 T02390206




000
SAHW31 PHFO 132006
MTRITO
SPECI PHTO 132005Z 01008KT 10SM SCT024 BKN031 BKN060 24/21 A3017 RMK
AO2 T02390206





000
SAHW31 PHFO 131957
MTRITO
METAR PHTO 131953Z COR 36010KT 10SM SCT025 SCT044 OVC060 22/21 A3017
RMK AO2 RAB27E49 SLP214 P0000 T02220206




000
SAHW31 PHFO 131957
MTRITO
METAR PHTO 131953Z COR 36010KT 10SM SCT025 SCT044 OVC060 22/21 A3017
RMK AO2 RAB27E49 SLP214 P0000 T02220206





000
SAHW31 PHFO 131954
MTRITO
METAR PHTO 131953Z AUTO 36010KT 10SM SCT025 SCT044 OVC060 22/21
A3017 RMK AO2 RAB27E49 SLP214 P0000 T02220206 TSNO




000
SAHW31 PHFO 131954
MTRITO
METAR PHTO 131953Z AUTO 36010KT 10SM SCT025 SCT044 OVC060 22/21
A3017 RMK AO2 RAB27E49 SLP214 P0000 T02220206 TSNO





000
SAHW31 PHFO 131854
MTRITO
METAR PHTO 131853Z 35010KT 10SM FEW030 BKN038 OVC047 22/19 A3017 RMK
AO2 RAB11E20 SLP215 P0000 T02220194





000
SAHW31 PHFO 131811
MTRITO
SPECI PHTO 131810Z 05012KT 10SM SCT022 BKN037 OVC070 22/21 A3016 RMK
AO2 T02170206




000
SAHW31 PHFO 131811
MTRITO
SPECI PHTO 131810Z 05012KT 10SM SCT022 BKN037 OVC070 22/21 A3016 RMK
AO2 T02170206





000
SAHW31 PHFO 131754
MTRITO
METAR PHTO 131753Z 10SM SCT020 BKN026 OVC036 21/21 A3016 RMK AO2
RAE12B29E38 SLP210 P0003 60088 T02110211 10217 20194 51022





000
SAHW31 PHFO 131754
MTRITO
METAR PHTO 131753Z 10SM SCT020 BKN026 OVC036 21/21 A3016 RMK AO2
RAE12B29E38 SLP210 P0003 60088 T02110211 10217 20194 51022




000
SAHW31 PHFO 131707
MTRITO
SPECI PHTO 131706Z 27006KT 4SM -RA BR FEW020 BKN025 OVC048 20/20
A3014 RMK AO2 P0003 T02000200




000
SAHW31 PHFO 131707
MTRITO
SPECI PHTO 131706Z 27006KT 4SM -RA BR FEW020 BKN025 OVC048 20/20
A3014 RMK AO2 P0003 T02000200





000
SAHW31 PHFO 131654
MTRITO
METAR PHTO 131653Z 28008KT 9SM -RA SCT027 BKN036 OVC070 20/20 A3013
RMK AO2 SLP202 P0000 T02000200




000
SAHW31 PHFO 131555
MTRITO
METAR PHTO 131553Z 30005KT 10SM -RA FEW030 BKN050 21/21 A3012 RMK
AO2 SLP197 P0000 T02060206





000
SAHW31 PHFO 131555
MTRITO
METAR PHTO 131553Z 30005KT 10SM -RA FEW030 BKN050 21/21 A3012 RMK
AO2 SLP197 P0000 T02060206




000
SAHW31 PHFO 131501
MTRITO
SPECI PHTO 131500Z 07011KT 9SM -RA FEW019 OVC042 21/21 A3009 RMK AO2
P0000 T02060206




000
SAHW31 PHFO 131501
MTRITO
SPECI PHTO 131500Z 07011KT 9SM -RA FEW019 OVC042 21/21 A3009 RMK AO2
P0000 T02060206





000
SAHW31 PHFO 131454
MTRITO
METAR PHTO 131453Z 07010G17KT 10SM -RA FEW008 SCT011 OVC023 21/20
A3009 RMK AO2 SLP188 P0006 60085 T02060200 53003




000
SAHW31 PHFO 131454
MTRITO
METAR PHTO 131453Z 07010G17KT 10SM -RA FEW008 SCT011 OVC023 21/20
A3009 RMK AO2 SLP188 P0006 60085 T02060200 53003





000
SAHW31 PHFO 131406
MTRITO
SPECI PHTO 131405Z 29006KT 4SM -RA BR FEW008 SCT011 OVC023 20/20
A3008 RMK AO2 P0004 T02000200




000
SAHW31 PHFO 131406
MTRITO
SPECI PHTO 131405Z 29006KT 4SM -RA BR FEW008 SCT011 OVC023 20/20
A3008 RMK AO2 P0004 T02000200





000
SAHW31 PHFO 131355
MTRITO
METAR PHTO 131353Z 24006KT 5SM -RA BR FEW009 BKN014 OVC021 19/19
A3008 RMK AO2 SLP183 P0058 T01940194




000
SAHW31 PHFO 131355
MTRITO
METAR PHTO 131353Z 24006KT 5SM -RA BR FEW009 BKN014 OVC021 19/19
A3008 RMK AO2 SLP183 P0058 T01940194





000
SAHW31 PHFO 131346
MTRITO
SPECI PHTO 131345Z 00000KT 3SM +RA BR BKN009 OVC014 21/21 A3008 RMK
AO2 P0055 T02060206





000
SAHW31 PHFO 131346
MTRITO
SPECI PHTO 131345Z 00000KT 3SM +RA BR BKN009 OVC014 21/21 A3008 RMK
AO2 P0055 T02060206




000
SAHW31 PHFO 131343
MTRITO
SPECI PHTO 131342Z 03003KT 2 1/2SM +RA BR FEW006 SCT010 OVC014 21/21
A3008 RMK AO2 P0054 T02060206




000
SAHW31 PHFO 131343
MTRITO
SPECI PHTO 131342Z 03003KT 2 1/2SM +RA BR FEW006 SCT010 OVC014 21/21
A3008 RMK AO2 P0054 T02060206





000
SAHW31 PHFO 131333
MTRITO
SPECI PHTO 131332Z 02007KT 340V060 1 3/4SM +RA BR SCT006 OVC012
20/20 A3008 RMK AO2 P0039 T02000200




000
SAHW31 PHFO 131333
MTRITO
SPECI PHTO 131332Z 02007KT 340V060 1 3/4SM +RA BR SCT006 OVC012
20/20 A3008 RMK AO2 P0039 T02000200





000
SAHW31 PHFO 131324
MTRITO
SPECI PHTO 131323Z 07012KT 2 1/2SM +RA BR FEW006 SCT013 OVC019 21/21
A3008 RMK AO2 P0028 T02060206




000
SAHW31 PHFO 131324
MTRITO
SPECI PHTO 131323Z 07012KT 2 1/2SM +RA BR FEW006 SCT013 OVC019 21/21
A3008 RMK AO2 P0028 T02060206





000
SAHW31 PHFO 131313
MTRITO
SPECI PHTO 131311Z VRB04KT 5SM RA BR FEW009 BKN015 OVC021 21/20
A3008 RMK AO2 P0018 T02060200




000
SAHW31 PHFO 131313
MTRITO
SPECI PHTO 131311Z VRB04KT 5SM RA BR FEW009 BKN015 OVC021 21/20
A3008 RMK AO2 P0018 T02060200





000
SAHW31 PHFO 131254
MTRITO
METAR PHTO 131253Z 01008KT 2SM +RA BR FEW007 BKN017 OVC031 21/21
A3008 RMK AO2 RAB35 SLP183 P0021 T02060206





000
SAHW31 PHFO 131254
MTRITO
METAR PHTO 131253Z 01008KT 2SM +RA BR FEW007 BKN017 OVC031 21/21
A3008 RMK AO2 RAB35 SLP183 P0021 T02060206




000
SAHW31 PHFO 131245
MTRITO
SPECI PHTO 131243Z 04013G16KT 2 1/2SM RA BR BKN017 OVC031 22/21
A3008 RMK AO2 RAB35 P0001 T02170206





000
SAHW31 PHFO 131245
MTRITO
SPECI PHTO 131243Z 04013G16KT 2 1/2SM RA BR BKN017 OVC031 22/21
A3008 RMK AO2 RAB35 P0001 T02170206




000
SAHW31 PHFO 131240
MTRITO
SPECI PHTO 131239Z 03009KT 6SM RA BR FEW007 BKN031 OVC041 22/20
A3008 RMK AO2 RAB35 P0000 T02170200





000
SAHW31 PHFO 131154
MTRITO
METAR PHTO 131153Z 25004KT 10SM BKN047 OVC065 21/18 A3008 RMK AO2
SLP185 60000 70012 T02110178 10244 20211 58013




000
SAHW31 PHFO 131154
MTRITO
METAR PHTO 131153Z 25004KT 10SM BKN047 OVC065 21/18 A3008 RMK AO2
SLP185 60000 70012 T02110178 10244 20211 58013





000
SAHW31 PHFO 131054
MTRITO
METAR PHTO 131053Z 06008KT 10SM FEW024 SCT065 BKN075 22/19 A3010 RMK
AO2 RAE07 SLP192 P0000 T02170189




000
SAHW31 PHFO 131054
MTRITO
METAR PHTO 131053Z 06008KT 10SM FEW024 SCT065 BKN075 22/19 A3010 RMK
AO2 RAE07 SLP192 P0000 T02170189





000
SAHW31 PHFO 130954
MTRITO
METAR PHTO 130953Z AUTO 35007KT 9SM -RA FEW017 BKN030 OVC040 22/19
A3011 RMK AO2 RAB52 SLP195 P0000 T02220194 402610189 TSNO





000
SAHW31 PHFO 130954
MTRITO
METAR PHTO 130953Z AUTO 35007KT 9SM -RA FEW017 BKN030 OVC040 22/19
A3011 RMK AO2 RAB52 SLP195 P0000 T02220194 402610189 TSNO




000
SAHW31 PHFO 130854
MTRITO
METAR PHTO 130853Z AUTO 32009KT 10SM BKN026 BKN033 OVC042 22/19
A3012 RMK AO2 SLP197 T02220189 50014 TSNO





000
SAHW31 PHFO 130854
MTRITO
METAR PHTO 130853Z AUTO 32009KT 10SM BKN026 BKN033 OVC042 22/19
A3012 RMK AO2 SLP197 T02220189 50014 TSNO




000
SAHW31 PHFO 130839
MTRITO
SPECI PHTO 130838Z AUTO 31007KT 10SM BKN027 BKN065 22/19 A3012 RMK
AO2 T02220189 TSNO




000
SAHW31 PHFO 130839
MTRITO
SPECI PHTO 130838Z AUTO 31007KT 10SM BKN027 BKN065 22/19 A3012 RMK
AO2 T02220189 TSNO





    US Dept of Commerce
    National Oceanic and Atmospheric Administration
    National Weather Service
    1325 East West Highway
    Silver Spring, MD 20910
    Page Author: NWS Internet Services Team
Disclaimer
Information Quality
Credits
Glossary
Privacy Policy
Freedom of Information Act (FOIA)
About Us
Career Opportunities